Time;durP1;ratioP1;P1;durP2;ratioP2;P2;SDS_P1;SDS_P2;PMS_P1;PMS_P2;Temp;Humidity;BMP_temperature;BMP_pressure;BME280_temperature;BME280_humidity;BME280_pressure;Samples;Min_cycle;Max_cycle;Signal;HPM_P1;HPM_P2
2022/03/05 00:01:00;;;;;;;6.30;1.80;;;;;;;-0.86;65.01;99346.47;4984673;28;20056;-69
2022/03/05 00:03:26;;;;;;;7.68;2.10;;;;;;;-0.81;64.31;99343.53;5033217;28;20088;-67
2022/03/05 00:05:52;;;;;;;7.40;2.33;;;;;;;-0.86;64.34;99335.84;5016399;28;20083;-70
2022/03/05 00:08:18;;;;;;;8.68;1.98;;;;;;;-0.82;64.13;99344.50;5016111;28;20064;-71
2022/03/05 00:10:45;;;;;;;31.85;2.45;;;;;;;-0.87;64.82;99333.31;5000793;28;20059;-69
2022/03/05 00:13:12;;;;;;;5.63;1.50;;;;;;;-0.89;65.67;99333.38;5000161;28;20136;-68
2022/03/05 00:15:38;;;;;;;7.68;1.85;;;;;;;-0.88;65.07;99332.41;4984481;28;20053;-70
2022/03/05 00:18:04;;;;;;;6.43;1.92;;;;;;;-0.86;65.71;99330.53;5016820;28;20163;-70
2022/03/05 00:20:31;;;;;;;6.70;1.98;;;;;;;-0.90;65.89;99323.72;4985402;28;20084;-68
2022/03/05 00:22:57;;;;;;;7.15;2.03;;;;;;;-0.84;65.39;99328.69;4984328;28;20087;-69
2022/03/05 00:28:43;;;;;;;8.50;2.05;;;;;;;-0.82;65.95;99320.63;5048438;28;20063;-69
2022/03/05 00:31:09;;;;;;;7.78;2.08;;;;;;;-0.96;65.39;99308.13;5016147;28;20091;-69
2022/03/05 00:33:35;;;;;;;8.75;2.08;;;;;;;-0.87;64.84;99323.53;4987991;28;20081;-69
2022/03/05 00:36:02;;;;;;;8.23;2.20;;;;;;;-0.84;64.88;99328.69;4987311;28;20111;-69
2022/03/05 00:38:28;;;;;;;8.13;2.05;;;;;;;-0.95;65.25;99309.84;5015763;28;20179;-68
2022/03/05 00:40:55;;;;;;;10.32;2.20;;;;;;;-0.87;66.14;99320.88;4983690;28;20072;-71
2022/03/05 00:43:21;;;;;;;8.20;2.17;;;;;;;-0.95;66.59;99309.84;5016401;28;20075;-69
2022/03/05 00:45:47;;;;;;;8.88;2.03;;;;;;;-0.94;66.47;99308.06;4999814;28;20060;-69
2022/03/05 00:48:13;;;;;;;12.43;2.58;;;;;;;-0.93;66.64;99313.25;4967241;28;20053;-69
2022/03/05 00:50:41;;;;;;;10.10;2.45;;;;;;;-0.95;67.01;99315.16;4995300;28;20076;-70
2022/03/05 00:53:10;;;;;;;9.18;2.28;;;;;;;-0.87;67.52;99328.00;5013562;28;20076;-68
2022/03/05 00:55:37;;;;;;;10.90;2.97;;;;;;;-0.88;68.47;99327.13;4984059;28;20068;-69
2022/03/05 00:58:03;;;;;;;9.80;2.88;;;;;;;-1.03;69.60;99312.06;5000235;28;20084;-68
2022/03/05 01:00:29;;;;;;;9.57;2.83;;;;;;;-0.92;69.81;99330.03;5000208;28;20142;-69
2022/03/05 01:02:55;;;;;;;16.08;3.05;;;;;;;-0.95;70.12;99325.78;5016298;28;20517;-69
2022/03/05 01:05:21;;;;;;;11.70;2.75;;;;;;;-0.90;68.62;99339.63;4983575;28;20057;-69
2022/03/05 01:07:47;;;;;;;9.57;2.83;;;;;;;-0.95;68.88;99336.38;5000011;28;20060;-70
2022/03/05 01:10:13;;;;;;;10.85;2.90;;;;;;;-0.91;69.95;99332.63;4984497;28;20377;-70
2022/03/05 01:12:39;;;;;;;9.60;3.00;;;;;;;-0.88;70.63;99340.38;5016524;28;20065;-68
2022/03/05 01:15:06;;;;;;;10.95;3.65;;;;;;;-0.94;71.98;99327.47;4983294;28;20049;-68
2022/03/05 01:17:32;;;;;;;12.13;3.63;;;;;;;-0.88;72.16;99335.06;5016187;28;20056;-71
2022/03/05 01:19:58;;;;;;;11.35;3.03;;;;;;;-0.87;72.66;99323.53;5001083;28;20634;-69
2022/03/05 01:22:24;;;;;;;9.43;2.63;;;;;;;-0.95;71.91;99325.78;4987758;28;20048;-69
2022/03/05 01:24:50;;;;;;;9.48;2.78;;;;;;;-0.91;71.48;99332.63;5019278;28;20044;-68
2022/03/05 01:27:16;;;;;;;14.82;3.10;;;;;;;-0.88;72.00;99332.41;4987061;28;20067;-68
2022/03/05 01:29:42;;;;;;;10.23;3.35;;;;;;;-0.98;72.25;99310.03;5003676;28;20057;-68
2022/03/05 01:32:08;;;;;;;12.98;3.60;;;;;;;-0.87;73.26;99328.84;4986762;28;20071;-68
2022/03/05 01:34:34;;;;;;;11.75;2.90;;;;;;;-0.88;73.18;99331.56;5003092;28;20064;-69
2022/03/05 01:37:00;;;;;;;11.38;3.17;;;;;;;-0.95;74.31;99320.47;5000279;28;20115;-70
2022/03/05 01:39:26;;;;;;;11.10;3.50;;;;;;;-0.95;74.90;99331.09;5019519;28;20053;-68
2022/03/05 01:41:55;;;;;;;12.23;3.08;;;;;;;-0.97;75.32;99333.81;5013613;28;20462;-68
2022/03/05 01:44:23;;;;;;;10.70;3.33;;;;;;;-0.91;76.17;99335.28;4991497;28;20389;-69
2022/03/05 01:46:49;;;;;;;11.63;3.13;;;;;;;-0.92;76.34;99328.22;4977603;28;20053;-69
2022/03/05 01:49:15;;;;;;;10.90;3.50;;;;;;;-0.91;77.02;99332.63;4997931;28;20159;-69
2022/03/05 01:51:42;;;;;;;10.60;2.67;;;;;;;-0.94;76.69;99332.78;5002164;28;20049;-69
2022/03/05 01:54:09;;;;;;;9.43;3.03;;;;;;;-0.97;77.25;99327.66;5018937;28;20533;-70
2022/03/05 01:56:35;;;;;;;9.43;2.58;;;;;;;-0.92;76.31;99330.88;5002695;28;20548;-69
2022/03/05 01:59:01;;;;;;;11.43;3.08;;;;;;;-1.02;76.28;99319.09;4986143;28;20156;-70
2022/03/05 02:01:28;;;;;;;10.52;2.55;;;;;;;-0.87;74.96;99339.47;5002281;28;20570;-70
2022/03/05 02:03:55;;;;;;;9.32;2.65;;;;;;;-1.02;74.44;99313.81;4986191;28;20056;-71
2022/03/05 02:06:22;;;;;;;9.85;2.53;;;;;;;-0.83;74.23;99341.00;4986232;28;20508;-70
2022/03/05 02:08:49;;;;;;;9.07;2.40;;;;;;;-0.90;74.40;99333.47;4984819;28;20053;-68
2022/03/05 02:11:15;;;;;;;7.35;2.30;;;;;;;-0.90;73.85;99334.31;5001125;28;20437;-70
2022/03/05 02:13:41;;;;;;;11.27;2.78;;;;;;;-0.90;73.90;99338.78;5002335;28;20053;-70
2022/03/05 02:16:08;;;;;;;9.07;2.47;;;;;;;-0.95;73.95;99324.91;4985947;28;20060;-68
2022/03/05 02:18:34;;;;;;;8.23;2.53;;;;;;;-0.86;73.54;99343.81;5002011;28;20049;-71
2022/03/05 02:21:00;;;;;;;10.95;2.30;;;;;;;-0.84;73.35;99349.91;5018810;28;20057;-69
2022/03/05 02:23:26;;;;;;;8.45;2.13;;;;;;;-0.84;72.76;99349.91;5018313;28;20084;-71
2022/03/05 02:26:04;;;;;;;15.90;2.60;;;;;;;-0.80;72.81;99359.41;5002829;28;20067;-69
2022/03/05 02:28:32;;;;;;;8.20;2.40;;;;;;;-0.84;71.93;99351.69;5002397;28;20049;-70
2022/03/05 02:30:59;;;;;;;8.00;2.17;;;;;;;-1.30;71.47;99286.16;4985703;28;20052;-69
2022/03/05 02:33:25;;;;;;;8.52;2.60;;;;;;;-0.91;71.38;99359.16;4986134;28;20060;-71
2022/03/05 02:35:51;;;;;;;7.28;1.90;;;;;;;-0.99;70.66;99345.44;5018255;28;20095;-69
2022/03/05 02:38:19;;;;;;;7.70;1.98;;;;;;;-0.93;70.92;99355.72;5018145;28;20487;-69
2022/03/05 02:40:46;;;;;;;9.50;1.60;;;;;;;-0.99;70.73;99335.72;4993870;28;20076;-69
2022/03/05 02:43:14;;;;;;;6.72;1.85;;;;;;;-0.94;69.69;99338.09;5001533;28;20049;-70
2022/03/05 02:55:17;;;;;;;8.57;1.50;;;;;;;-0.90;67.29;99344.94;5050310;28;20092;-70
2022/03/05 02:57:43;;;;;;;5.30;1.27;;;;;;;-0.96;67.07;99342.63;4985313;28;20075;-71
2022/03/05 03:00:10;;;;;;;5.45;1.33;;;;;;;-1.06;67.00;99306.94;5034855;28;20198;-68
2022/03/05 03:02:36;;;;;;;5.82;1.55;;;;;;;-0.83;66.93;99356.91;5017914;28;20551;-70
2022/03/05 03:05:02;;;;;;;6.38;1.40;;;;;;;-1.04;67.87;99326.28;5002267;28;20155;-70
2022/03/05 03:07:28;;;;;;;5.75;1.42;;;;;;;-1.04;67.89;99326.28;5034262;28;20425;-70
2022/03/05 03:09:54;;;;;;;5.05;1.17;;;;;;;-0.94;67.83;99343.41;5019747;28;20076;-70
2022/03/05 03:12:20;;;;;;;6.47;1.50;;;;;;;-0.86;68.41;99356.22;4985560;28;20075;-69
2022/03/05 03:14:46;;;;;;;9.38;1.40;;;;;;;-0.87;69.01;99355.38;4996997;28;20045;-70
2022/03/05 03:23:54;;;;;;;14.57;1.75;;;;;;;-0.88;71.38;99358.94;5046418;28;20061;-70
2022/03/05 03:26:20;;;;;;;7.38;1.60;;;;;;;-1.04;72.57;99344.84;4983366;28;20060;-71
2022/03/05 03:28:46;;;;;;;7.20;1.70;;;;;;;-0.88;73.59;99366.06;5000837;28;20056;-70
2022/03/05 03:31:12;;;;;;;6.95;1.63;;;;;;;-0.93;74.72;99366.31;5017385;28;20049;-69
2022/03/05 03:33:38;;;;;;;11.05;2.00;;;;;;;-0.91;74.95;99363.59;4982681;28;20439;-71
2022/03/05 03:36:04;;;;;;;8.05;1.73;;;;;;;-0.95;75.99;99362.91;5001061;28;20052;-71
2022/03/05 03:38:30;;;;;;;7.20;1.80;;;;;;;-1.06;76.36;99349.38;4996651;28;20407;-69
2022/03/05 03:40:56;;;;;;;9.07;1.80;;;;;;;-0.99;76.50;99367.53;4989989;28;20065;-71
2022/03/05 03:43:22;;;;;;;7.95;2.42;;;;;;;-1.03;77.31;99354.50;5015258;28;20057;-70
2022/03/05 03:45:48;;;;;;;10.43;2.78;;;;;;;-0.99;76.67;99383.47;4978791;28;20425;-70
2022/03/05 03:48:14;;;;;;;6.88;1.80;;;;;;;-1.13;75.95;99354.19;4981420;28;20427;-70
2022/03/05 03:50:41;;;;;;;8.82;2.03;;;;;;;-1.03;74.13;99376.59;5017103;28;20126;-70
2022/03/05 03:53:06;;;;;;;7.57;1.80;;;;;;;-1.02;73.58;99373.00;5016850;28;20091;-70
2022/03/05 03:55:32;;;;;;;6.57;1.40;;;;;;;-1.03;72.64;99370.44;5000909;28;20057;-70
2022/03/05 03:57:58;;;;;;;6.25;1.60;;;;;;;-1.03;70.22;99378.38;4978260;28;20053;-73
2022/03/05 04:00:24;;;;;;;6.00;1.65;;;;;;;-1.02;70.48;99385.44;4973950;28;20528;-71
2022/03/05 04:02:50;;;;;;;6.43;1.77;;;;;;;-1.04;71.19;99390.78;4960680;28;20049;-70
2022/03/05 04:05:16;;;;;;;6.60;1.40;;;;;;;-1.19;71.54;99365.13;5012094;28;20123;-70
2022/03/05 04:10:26;;;;;;;8.80;1.70;;;;;;;-1.07;71.80;99390.97;5016817;28;20059;-69
2022/03/05 04:12:52;;;;;;;6.75;1.80;;;;;;;-1.10;72.63;99390.28;4985233;28;20144;-69
2022/03/05 04:15:19;;;;;;;8.32;1.98;;;;;;;-1.08;71.51;99383.09;5002409;28;20053;-69
2022/03/05 04:20:52;;;;;;;5.95;1.48;;;;;;;-1.09;72.33;99386.72;5050737;28;20072;-70
2022/03/05 04:23:18;;;;;;;6.93;1.90;;;;;;;-1.19;72.69;99380.19;5002462;28;20060;-69
2022/03/05 04:25:44;;;;;;;6.95;1.70;;;;;;;-1.06;72.04;99405.97;4992563;28;20056;-71
2022/03/05 04:28:10;;;;;;;7.85;2.08;;;;;;;-1.19;72.83;99380.19;5015502;28;20057;-71
2022/03/05 04:30:36;;;;;;;7.30;2.15;;;;;;;-1.12;73.03;99411.59;4994293;28;20126;-71
2022/03/05 04:33:02;;;;;;;6.85;1.60;;;;;;;-1.10;73.06;99412.34;4971377;28;20057;-70
2022/03/05 04:35:28;;;;;;;9.15;2.33;;;;;;;-1.21;73.54;99406.78;4965957;28;20144;-70
2022/03/05 04:37:54;;;;;;;6.72;1.80;;;;;;;-1.30;73.35;99400.19;5051746;28;20049;-70
2022/03/05 04:40:21;;;;;;;10.43;2.00;;;;;;;-1.18;73.58;99424.31;4986794;28;20053;-69
2022/03/05 04:42:49;;;;;;;11.43;1.50;;;;;;;-1.27;74.32;99421.25;4985442;28;20084;-71
2022/03/05 04:45:15;;;;;;;6.05;1.58;;;;;;;-1.28;74.66;99423.94;5000236;28;20433;-70
2022/03/05 04:47:41;;;;;;;6.45;1.65;;;;;;;-1.38;74.66;99422.75;4984638;28;20091;-70
2022/03/05 04:50:09;;;;;;;7.85;1.58;;;;;;;-1.49;74.77;99404.75;5000387;28;20507;-69
2022/03/05 04:52:36;;;;;;;8.55;1.70;;;;;;;-1.30;74.50;99439.97;5017030;28;20140;-69
2022/03/05 04:55:03;;;;;;;6.00;1.60;;;;;;;-1.48;74.19;99417.94;5036932;28;20111;-69
2022/03/05 04:57:29;;;;;;;9.20;2.10;;;;;;;-1.38;74.75;99436.00;5020586;28;20500;-72
2022/03/05 04:59:55;;;;;;;6.93;1.73;;;;;;;-1.52;75.85;99436.72;5005536;28;20059;-70
2022/03/05 05:02:22;;;;;;;8.80;1.80;;;;;;;-1.52;76.26;99452.63;4989226;28;20064;-70
2022/03/05 05:04:48;;;;;;;6.60;1.65;;;;;;;-1.57;77.40;99450.22;5001027;28;20052;-70
2022/03/05 05:07:15;;;;;;;10.75;1.88;;;;;;;-1.65;77.47;99446.25;5006422;28;20097;-70
2022/03/05 05:09:42;;;;;;;6.05;1.42;;;;;;;-1.52;76.37;99453.50;4979943;28;20053;-71
2022/03/05 05:12:09;;;;;;;6.28;1.73;;;;;;;-1.60;76.51;99454.84;5005871;28;20044;-69
2022/03/05 05:14:35;;;;;;;7.65;1.85;;;;;;;-1.64;77.39;99448.84;5041758;28;20065;-71
2022/03/05 05:17:02;;;;;;;6.63;1.77;;;;;;;-1.53;78.36;99461.53;5005543;28;20080;-71
2022/03/05 05:19:28;;;;;;;9.50;2.85;;;;;;;-1.50;77.78;99462.22;4983410;28;20473;-72
2022/03/05 05:22:03;;;;;;;9.25;2.20;;;;;;;-1.63;77.32;99428.50;4985319;28;20052;-73
2022/03/05 05:24:32;;;;;;;7.88;2.00;;;;;;;-1.30;76.44;99458.50;5051702;28;20045;-71
2022/03/05 05:26:59;;;;;;;6.38;1.70;;;;;;;-1.32;75.65;99455.06;5025234;28;20097;-72
2022/03/05 05:29:25;;;;;;;9.38;2.20;;;;;;;-1.31;75.96;99463.91;4998736;28;20505;-68
2022/03/05 05:31:51;;;;;;;8.68;1.75;;;;;;;-1.33;75.47;99466.63;4981550;28;20095;-68
2022/03/05 05:34:18;;;;;;;8.15;1.92;;;;;;;-1.49;75.52;99441.88;5003121;28;20049;-75
2022/03/05 05:36:44;;;;;;;7.22;1.80;;;;;;;-1.31;76.31;99466.56;5016886;28;20127;-69
2022/03/05 05:39:11;;;;;;;10.93;2.20;;;;;;;-1.45;75.68;99451.38;5034939;28;20061;-70
2022/03/05 05:41:38;;;;;;;5.80;1.38;;;;;;;-1.26;75.04;99465.38;4988649;28;20063;-74
2022/03/05 05:44:06;;;;;;;5.82;1.92;;;;;;;-1.26;72.60;99467.16;5017139;28;20185;-68
2022/03/05 05:46:32;;;;;;;7.15;1.63;;;;;;;-1.26;69.23;99459.22;5025041;28;20189;-67
2022/03/05 05:48:58;;;;;;;5.95;1.48;;;;;;;-1.29;68.43;99475.28;4975659;28;20456;-67
2022/03/05 05:51:28;;;;;;;6.15;1.30;;;;;;;-1.33;69.89;99479.88;5019249;28;20064;-65
2022/03/05 05:53:55;;;;;;;8.82;2.10;;;;;;;-1.54;70.44;99447.41;5020186;28;20071;-76
2022/03/05 05:56:21;;;;;;;6.68;1.30;;;;;;;-1.46;69.92;99465.59;5004652;28;20053;-66
2022/03/05 05:58:49;;;;;;;7.10;1.40;;;;;;;-1.35;69.49;99471.19;4986926;28;20082;-73
2022/03/05 06:01:17;;;;;;;8.93;1.70;;;;;;;-1.33;69.58;99479.88;5009924;28;20317;-68
2022/03/05 06:03:45;;;;;;;8.23;1.38;;;;;;;-1.36;69.09;99480.03;5033417;28;20489;-73
2022/03/05 06:06:11;;;;;;;6.25;1.52;;;;;;;-1.35;69.34;99476.47;4975822;28;20440;-70
2022/03/05 06:08:40;;;;;;;6.82;1.60;;;;;;;-1.38;69.50;99475.78;5013408;28;20131;-72
2022/03/05 06:11:06;;;;;;;6.25;1.70;;;;;;;-1.36;70.61;99480.03;5032576;28;20053;-68
2022/03/05 06:13:32;;;;;;;7.07;1.60;;;;;;;-1.33;70.95;99485.19;5009022;28;20531;-71
2022/03/05 06:15:58;;;;;;;7.00;1.63;;;;;;;-1.29;70.04;99485.88;4982072;28;20128;-69
2022/03/05 06:18:24;;;;;;;5.50;1.50;;;;;;;-1.23;69.45;99486.44;4984690;28;20448;-72
2022/03/05 06:20:50;;;;;;;5.68;1.77;;;;;;;-1.27;70.51;99487.53;4983911;28;20061;-72
2022/03/05 06:23:20;;;;;;;14.57;2.00;;;;;;;-1.43;71.54;99478.66;4984048;28;20041;-72
2022/03/05 06:25:46;;;;;;;7.57;1.88;;;;;;;-1.37;71.78;99494.25;5024217;28;20151;-76
2022/03/05 06:28:12;;;;;;;7.60;2.20;;;;;;;-1.47;72.30;99477.94;5092463;23;20057;-75
2022/03/05 06:30:39;;;;;;;9.82;1.70;;;;;;;-1.20;71.80;99495.16;5002943;28;20078;-71
2022/03/05 06:33:05;;;;;;;10.45;4.18;;;;;;;-1.31;71.15;99455.97;4995544;28;20051;-75
2022/03/05 06:35:33;;;;;;;12.70;2.00;;;;;;;-1.31;70.61;99450.66;4992416;28;20220;-73
2022/03/05 06:38:01;;;;;;;7.88;1.85;;;;;;;-1.05;68.57;99495.19;4989538;28;20111;-73
2022/03/05 06:40:27;;;;;;;6.68;1.45;;;;;;;-1.11;65.22;99503.47;4978842;28;20127;-72
2022/03/05 06:42:54;;;;;;;6.18;1.42;;;;;;;-1.00;65.85;99492.28;4996060;28;20045;-70
2022/03/05 06:45:21;;;;;;;9.57;2.22;;;;;;;-0.84;67.32;99493.19;4993871;28;20405;-73
2022/03/05 06:47:47;;;;;;;9.45;2.33;;;;;;;-0.75;67.49;99498.00;5027457;28;20072;-70
2022/03/05 06:50:13;;;;;;;8.52;1.80;;;;;;;-0.60;68.81;99501.59;5003786;28;20053;-70
2022/03/05 06:52:40;;;;;;;10.93;2.42;;;;;;;-0.60;69.04;99517.53;4984631;28;20437;-76
2022/03/05 06:55:07;;;;;;;9.48;2.00;;;;;;;-0.69;68.94;99518.03;5016564;28;20041;-70
2022/03/05 06:57:32;;;;;;;12.15;2.15;;;;;;;-0.84;70.17;99514.44;4993172;28;20469;-70
2022/03/05 06:59:58;;;;;;;11.75;2.10;;;;;;;-0.67;70.13;99515.28;4997122;28;20080;-71
2022/03/05 07:02:24;;;;;;;14.15;3.25;;;;;;;-0.41;69.41;99517.34;4986635;28;20053;-71
2022/03/05 07:04:51;;;;;;;8.15;2.83;;;;;;;-0.23;69.01;99510.16;5002390;28;20049;-68
2022/03/05 07:07:17;;;;;;;8.52;2.20;;;;;;;-0.28;67.85;99510.44;5027200;28;20053;-66
2022/03/05 07:09:43;;;;;;;8.13;2.00;;;;;;;-0.31;66.42;99507.09;4996464;28;20053;-77
2022/03/05 07:12:09;;;;;;;9.00;2.20;;;;;;;-0.32;67.18;99510.69;5013523;28;20085;-73
2022/03/05 07:14:36;;;;;;;6.25;1.70;;;;;;;-0.42;68.56;99520.09;5010074;28;20114;-73
2022/03/05 07:17:03;;;;;;;9.70;2.42;;;;;;;-0.43;67.54;99513.94;5004793;28;20049;-72
2022/03/05 07:19:29;;;;;;;10.05;2.92;;;;;;;-0.33;67.60;99515.16;5004100;28;20067;-72
2022/03/05 07:21:55;;;;;;;8.88;2.30;;;;;;;-0.42;69.30;99514.81;5016514;28;20049;-71
2022/03/05 07:24:21;;;;;;;9.20;2.67;;;;;;;-0.46;67.88;99507.94;4993184;28;20396;-71
2022/03/05 07:26:47;;;;;;;10.93;2.50;;;;;;;-0.55;67.90;99514.59;4999581;28;20053;-72
2022/03/05 07:29:15;;;;;;;14.77;2.58;;;;;;;-0.49;67.84;99515.13;5016973;28;20052;-69
2022/03/05 07:31:41;;;;;;;8.75;2.42;;;;;;;0.28;65.59;99504.59;4990768;28;20060;-72
2022/03/05 07:34:13;;;;;;;13.23;3.30;;;;;;;1.67;61.68;99512.84;4978535;28;20092;-70
2022/03/05 07:36:39;;;;;;;7.75;2.40;;;;;;;3.02;55.55;99506.47;4990486;28;20063;-69
2022/03/05 07:39:07;;;;;;;7.75;2.30;;;;;;;4.14;52.14;99510.94;4972640;28;20049;-67
2022/03/05 07:41:35;;;;;;;9.30;2.60;;;;;;;6.70;45.20;99499.47;4998628;28;20845;-67
2022/03/05 07:44:01;;;;;;;8.40;2.30;;;;;;;8.20;41.04;99502.38;5001238;28;20098;-68
2022/03/05 07:46:27;;;;;;;18.45;3.58;;;;;;;7.96;40.43;99494.69;4987284;28;20057;-72
2022/03/05 07:48:53;;;;;;;11.02;2.58;;;;;;;6.28;43.82;99499.41;4996723;28;20053;-70
2022/03/05 07:51:19;;;;;;;11.07;2.10;;;;;;;5.04;46.55;99509.38;4970879;28;20065;-69
2022/03/05 07:53:45;;;;;;;19.00;2.70;;;;;;;4.26;48.71;99499.31;4987472;28;20699;-71
2022/03/05 07:56:11;;;;;;;11.60;2.80;;;;;;;4.08;49.25;99512.22;4965607;28;20057;-70
2022/03/05 07:58:37;;;;;;;15.18;2.83;;;;;;;3.19;51.56;99501.78;4995428;28;20059;-72
2022/03/05 08:01:03;;;;;;;11.02;2.90;;;;;;;3.06;52.76;99504.44;4979134;28;20049;-68
2022/03/05 08:03:32;;;;;;;8.45;2.15;;;;;;;2.72;53.65;99503.25;5015388;28;20107;-68
2022/03/05 08:05:58;;;;;;;10.43;1.92;;;;;;;2.40;53.40;99503.63;5024785;28;20049;-68
2022/03/05 08:08:23;;;;;;;11.15;2.72;;;;;;;1.84;55.67;99505.59;5017012;28;20069;-66
2022/03/05 08:10:49;;;;;;;21.45;3.63;;;;;;;1.90;55.50;99515.81;5003801;28;20115;-68
2022/03/05 08:13:15;;;;;;;10.70;2.67;;;;;;;1.53;56.63;99510.19;5010748;28;20061;-66
2022/03/05 08:15:42;;;;;;;16.35;2.45;;;;;;;1.23;57.70;99520.13;4985322;28;20380;-67
2022/03/05 08:18:07;;;;;;;8.75;2.40;;;;;;;1.26;57.87;99519.94;4994327;28;20415;-68
2022/03/05 08:20:34;;;;;;;13.98;2.90;;;;;;;1.09;57.28;99515.66;4967299;28;20488;-67
2022/03/05 08:23:00;;;;;;;18.05;2.75;;;;;;;1.20;57.67;99522.03;4969374;28;20061;-68
2022/03/05 08:25:27;;;;;;;17.40;3.17;;;;;;;1.29;56.94;99522.41;4970082;28;20073;-68
2022/03/05 08:27:53;;;;;;;16.88;2.65;;;;;;;1.09;58.39;99523.63;5020941;28;20057;-71
2022/03/05 08:30:20;;;;;;;11.73;3.05;;;;;;;0.95;59.11;99532.47;4993647;28;20065;-66
2022/03/05 08:32:46;;;;;;;13.27;2.60;;;;;;;0.92;59.01;99527.34;4982482;28;20072;-71
2022/03/05 08:35:13;;;;;;;11.25;2.60;;;;;;;0.75;59.60;99519.53;4984021;28;20608;-71
2022/03/05 08:37:40;;;;;;;12.45;3.20;;;;;;;0.28;61.00;99493.97;5096238;23;20057;-75
2022/03/05 08:40:09;;;;;;;13.95;2.80;;;;;;;0.43;60.66;99525.81;5032660;28;20115;-71
2022/03/05 08:42:35;;;;;;;15.52;3.13;;;;;;;0.52;60.58;99523.56;5043344;28;20072;-75
2022/03/05 08:45:05;;;;;;;20.40;3.78;;;;;;;0.84;59.33;99529.59;4995899;28;20065;-75
2022/03/05 08:47:31;;;;;;;12.48;2.70;;;;;;;2.68;54.79;99515.13;4997622;28;20075;-76
2022/03/05 08:49:57;;;;;;;10.55;3.00;;;;;;;4.73;49.60;99518.94;4994153;28;20432;-66
2022/03/05 08:52:23;;;;;;;10.63;2.75;;;;;;;7.29;42.66;99520.34;4985382;28;20153;-68
2022/03/05 08:54:49;;;;;;;18.10;3.63;;;;;;;8.28;39.67;99510.59;4985798;28;20057;-66
2022/03/05 08:57:15;;;;;;;13.35;2.63;;;;;;;9.16;37.84;99511.44;5006058;28;20117;-67
2022/03/05 08:59:41;;;;;;;11.07;3.13;;;;;;;8.98;37.18;99502.38;4991108;28;20436;-66
2022/03/05 09:02:08;;;;;;;11.07;2.83;;;;;;;6.60;41.32;99515.50;5009299;28;20124;-68
2022/03/05 09:04:34;;;;;;;15.35;2.67;;;;;;;6.67;40.38;99521.22;5003817;28;20156;-65
2022/03/05 09:07:01;;;;;;;8.40;2.10;;;;;;;5.52;43.14;99507.34;4981993;28;20099;-66
2022/03/05 09:09:27;;;;;;;13.50;2.80;;;;;;;4.94;45.03;99533.38;5011311;28;20056;-68
2022/03/05 09:11:53;;;;;;;14.13;2.67;;;;;;;4.57;46.07;99537.97;5008781;28;20057;-67
2022/03/05 09:14:19;;;;;;;8.27;2.50;;;;;;;3.95;47.78;99544.41;4969673;28;20056;-67
2022/03/05 09:16:47;;;;;;;10.73;2.63;;;;;;;3.55;48.14;99536.56;5005353;28;20045;-71
2022/03/05 09:19:13;;;;;;;11.82;2.95;;;;;;;3.57;49.15;99545.31;4981230;28;20527;-71
2022/03/05 09:21:39;;;;;;;7.65;2.70;;;;;;;2.99;51.24;99554.75;4984996;28;20057;-71
2022/03/05 09:24:06;;;;;;;12.38;2.58;;;;;;;3.16;50.53;99550.06;5005020;28;20072;-68
2022/03/05 09:26:32;;;;;;;22.38;3.70;;;;;;;3.14;50.26;99543.03;5038235;28;20127;-68
2022/03/05 09:28:58;;;;;;;9.52;2.60;;;;;;;3.33;49.49;99552.41;4987198;28;20045;-68
2022/03/05 09:31:24;;;;;;;22.33;3.40;;;;;;;6.29;43.38;99549.47;4993467;28;20151;-68
2022/03/05 09:33:51;;;;;;;12.10;2.30;;;;;;;5.30;43.73;99555.56;4985934;28;20053;-67
2022/03/05 09:36:17;;;;;;;19.10;2.60;;;;;;;4.36;46.27;99548.50;4989386;28;20147;-74
2022/03/05 09:38:43;;;;;;;10.15;2.53;;;;;;;3.56;48.30;99543.63;4974843;28;20195;-70
2022/03/05 09:41:10;;;;;;;8.55;2.22;;;;;;;3.24;49.58;99555.72;4996379;28;20083;-72
2022/03/05 09:43:36;;;;;;;10.52;2.22;;;;;;;2.36;51.62;99560.81;4979098;28;20057;-73
2022/03/05 09:46:02;;;;;;;11.13;2.28;;;;;;;2.17;53.12;99562.03;4998265;28;20428;-70
2022/03/05 09:48:29;;;;;;;16.08;2.75;;;;;;;1.94;53.09;99530.69;4998537;28;20058;-70
2022/03/05 09:50:57;;;;;;;11.05;2.42;;;;;;;1.93;52.97;99560.94;4970818;28;20057;-71
2022/03/05 09:53:30;;;;;;;13.45;3.92;;;;;;;1.94;54.68;99554.69;4994491;28;20060;-75
2022/03/05 09:55:57;;;;;;;14.20;1.90;;;;;;;2.35;52.65;99569.78;4990813;28;20057;-69
2022/03/05 09:58:23;;;;;;;11.57;2.38;;;;;;;1.79;54.71;99576.97;5022710;28;20045;-69
2022/03/05 10:00:50;;;;;;;13.05;2.38;;;;;;;1.64;54.71;99579.63;4983600;28;20061;-70
2022/03/05 10:03:17;;;;;;;7.68;2.35;;;;;;;1.63;55.42;99575.28;4995364;28;20047;-67
2022/03/05 10:05:43;;;;;;;7.65;2.00;;;;;;;1.46;55.03;99591.44;5015303;28;20063;-69
2022/03/05 10:08:13;;;;;;;12.80;2.30;;;;;;;1.64;54.00;99590.28;5005470;28;20053;-71
2022/03/05 10:10:51;;;;;;;6.65;2.03;;;;;;;1.73;54.33;99578.22;5004541;28;20064;-70
2022/03/05 10:13:36;;;;;;;20.05;2.50;;;;;;;1.66;54.65;99566.25;5012460;28;20451;-74
2022/03/05 10:16:06;;;;;;;20.73;2.92;;;;;;;1.53;54.81;99582.13;5030128;28;20103;-76
2022/03/05 10:18:35;;;;;;;7.55;2.17;;;;;;;1.59;55.42;99584.41;4993154;28;20054;-72
2022/03/05 10:21:06;;;;;;;14.25;2.67;;;;;;;1.32;56.74;99586.16;5013633;28;20064;-70
2022/03/05 10:23:37;;;;;;;8.70;2.35;;;;;;;1.13;57.57;99589.06;4999960;28;20119;-75
2022/03/05 10:26:08;;;;;;;11.57;2.25;;;;;;;1.36;56.20;99591.19;5016574;28;20120;-73
2022/03/05 10:28:39;;;;;;;8.52;1.90;;;;;;;1.68;55.30;99597.19;5013832;28;20072;-75
2022/03/05 10:31:11;;;;;;;7.57;2.03;;;;;;;1.71;55.11;99587.25;4991395;28;20246;-68
2022/03/05 10:33:45;;;;;;;11.90;2.25;;;;;;;1.92;54.47;99583.22;5016393;28;20053;-73
2022/03/05 10:36:25;;;;;;;7.75;1.73;;;;;;;2.08;54.31;99588.41;4973967;28;20053;-71
2022/03/05 10:38:59;;;;;;;10.35;2.15;;;;;;;2.36;54.01;99583.00;4973670;28;20053;-72
2022/03/05 10:41:35;;;;;;;12.57;1.90;;;;;;;2.16;54.19;99581.66;4983399;28;20053;-68
2022/03/05 10:44:10;;;;;;;10.43;2.30;;;;;;;2.33;53.62;99587.69;5046132;28;20049;-71
2022/03/05 10:46:38;;;;;;;8.15;2.13;;;;;;;1.96;55.03;99590.06;4992086;28;20049;-71
2022/03/05 10:49:14;;;;;;;11.73;2.20;;;;;;;1.74;55.16;99584.41;5017988;28;20060;-73
2022/03/05 10:51:40;;;;;;;10.18;1.92;;;;;;;1.82;54.42;99587.44;5010563;28;20057;-69
2022/03/05 10:54:06;;;;;;;21.52;3.40;;;;;;;1.90;54.84;99590.47;4974232;28;20476;-69
2022/03/05 10:56:33;;;;;;;6.97;2.08;;;;;;;1.85;55.36;99587.25;4983391;28;20458;-73
2022/03/05 10:59:00;;;;;;;7.05;1.98;;;;;;;2.18;55.38;99595.72;5001893;28;20520;-70
2022/03/05 11:01:27;;;;;;;8.32;2.30;;;;;;;2.55;54.38;99592.47;4992615;28;20081;-70
2022/03/05 11:03:54;;;;;;;7.90;2.15;;;;;;;2.17;54.43;99580.69;5002167;28;20560;-72
2022/03/05 11:06:20;;;;;;;11.68;2.50;;;;;;;2.47;54.61;99598.31;4982294;28;20195;-72
2022/03/05 11:08:48;;;;;;;8.20;2.33;;;;;;;2.35;54.77;99607.13;5017832;28;20064;-71
2022/03/05 11:11:15;;;;;;;10.75;2.25;;;;;;;1.89;55.37;99584.28;5000470;28;20077;-68
2022/03/05 11:13:42;;;;;;;13.05;3.05;;;;;;;2.03;55.05;99590.53;5034063;28;20085;-72
2022/03/05 11:16:09;;;;;;;13.50;3.03;;;;;;;1.79;56.57;99598.28;5035111;28;20068;-68
2022/03/05 11:18:39;;;;;;;8.65;2.10;;;;;;;1.56;56.47;99587.25;5051001;28;20057;-73
2022/03/05 11:21:06;;;;;;;8.85;2.70;;;;;;;1.25;57.10;99603.44;4983018;28;20061;-70
2022/03/05 11:23:34;;;;;;;9.40;2.72;;;;;;;1.50;57.08;99603.66;5015696;28;20079;-72
2022/03/05 11:26:00;;;;;;;7.65;2.10;;;;;;;1.39;56.71;99595.44;4994860;28;20049;-71
2022/03/05 11:28:38;;;;;;;14.27;2.40;;;;;;;1.38;57.26;99604.38;4991885;28;20140;-73
2022/03/05 11:31:30;;;;;;;8.63;2.28;;;;;;;1.70;56.58;99615.72;4985733;28;20049;-73
2022/03/05 11:34:11;;;;;;;12.10;2.38;;;;;;;1.63;55.85;99593.94;4990599;28;20057;-70
2022/03/05 11:36:38;;;;;;;12.80;2.85;;;;;;;1.57;56.13;99581.00;4996607;28;20498;-73
2022/03/05 11:39:19;;;;;;;9.43;2.15;;;;;;;1.59;55.73;99597.72;4978474;28;20041;-71
2022/03/05 11:41:59;;;;;;;9.05;2.22;;;;;;;1.83;55.16;99594.47;5013964;28;20095;-72
2022/03/05 11:44:28;;;;;;;21.13;2.75;;;;;;;1.80;54.78;99610.69;4981928;28;20488;-71
2022/03/05 11:47:19;;;;;;;6.90;1.98;;;;;;;1.59;55.72;99603.06;5033460;28;20053;-72
2022/03/05 11:50:00;;;;;;;15.77;2.25;;;;;;;1.46;54.85;99602.09;5018333;28;20270;-71
2022/03/05 11:52:39;;;;;;;8.35;2.10;;;;;;;1.20;55.88;99612.53;5010814;28;20527;-71
2022/03/05 11:55:11;;;;;;;8.30;1.90;;;;;;;1.30;55.97;99612.00;5010437;28;20054;-71
2022/03/05 11:57:38;;;;;;;6.88;1.92;;;;;;;1.23;56.74;99606.19;5001455;28;20041;-71
2022/03/05 12:00:05;;;;;;;11.05;2.33;;;;;;;0.89;57.72;99575.44;5017245;28;20050;-71